ESGR/KVB METAR and TAF weather

Enter ICAO airport designator
Station Type Date Time Source
ESGR METAR 2021/10/22 18:20 UTC NOAA

ESGR 221820Z AUTO 25007KT 9999 NCD 06/M01 Q0995


Station Type Date Time Source
ESGR Decoded METAR 2021/10/22 18:20 UTC NOAA

Skovde Flygplats, Sweden (ESGR) 58-27N 013-58E 105M
Oct 22, 2021 - 02:20 PM EDT / 2021.10.22 1820 UTC
Wind: from the WSW (250 degrees) at 8 MPH (7 KT):0
Visibility: greater than 7 mile(s):0
Temperature: 42 F (6 C)
Dew Point: 30 F (-1 C)
Relative Humidity: 60%
Pressure (altimeter): 29.38 in. Hg (0995 hPa)
ob: ESGR 221820Z AUTO 25007KT 9999 NCD 06/M01 Q0995
cycle: 18

Station Type Date Time Source
ESGR TAF 2009/06/28 04:50 UTC NOAA

METAR ESGR 280450Z AUTO VRB02KT 9999NDV NCD 17/12 Q1020

Example: see airport list